FLIGHT DETAILS
Pilot: ACV287 Karlo Siljevinac Aircraft: PMDG - 747-400F GE CF6 ENGINES Distance: 4763NM
Departure SVMI Arrival LDZD Duration 9.02
Validation Validated Type Charter Tail Number N744PM
ZFW 245021 Block Fuel/Initial FOB 118,122/0 Flight Fuel 115,253
Passengers 0 Cargo 85000 Alternate LDZA
Departure Time 1045 Cruise Speed 480 Flight Level 33000
Flight Type IFR Aircraft Type Weight Unit Kg
Date 2017-02-19 Pilot Comments Network IVAO
Crashed No Validator Comments Flight Rating 100

 ROUTE
ROUTE MIQ UG432 ARMUR L458 BDA M590 ANVER L462 OVAPI M202 MUNEY NATZ XETBO DCT ARKIL UN80 NAKID UN160 PIGOP UN491 RESMI UL612 OGULO UQ223 MILPA UL612 BIBAN DCT OMETO DCT BAPLU DCT GIPUK DCT IBENI UM986 LOS
REMARKS
 FLIGHT FAILURES
Crashed OK Beacon off & Engine Running Fail KIAS Above 250 below 10000 FT Fail
Lights OFF below 10000 FT Fail Lights ON above 10000 FT OK Stall Fail
Overspeed Fail Flight paused OK Refueling OK
Slew detected OK Taxi & Taxi lights off OK Take off & lights off OK
Landing & lights off Fail Landed in not planned airport OK Taxi Speed Fail
Wrong altimeter in Take off OK Wrong altimeter in Landing OK
 LANDING ANALYSIS
Landing wind 0º/0 kt Landing heading 244
Landing VS: -376.02 ft/min Landing IAS: 140.1 kt
Landing Force G 2 G Landing Bank -0.6
Landing Pitch 4.4 Landing Flaps 33
Navigation Lights ON Landing Lights OFF
Beacon Lights OFF Strobe Lights ON
 FLIGHT MAP
 ALTITUDE CHART
 FLIGHT FINANCIAL REPORT
 MAIN EVENTS
DATE EVENTIASALTITUDE
2017-02-18 22:48:10 SIM ACARS version 1.4.00247
2017-02-18 22:48:10 BOARDING0247
2017-02-18 22:48:10 STARTING ENGINE 1 0247
2017-02-18 22:48:10 STARTING ENGINE 2 0247
2017-02-18 22:48:10 STARTING ENGINE 3 0247
2017-02-18 22:48:10 STARTING ENGINE 4 0247
2017-02-18 22:48:10 BEACON LIGHT OFF & ENGINE ON0247
2017-02-18 22:49:46 FLAPS EXTENSION 17 % 0247
2017-02-18 22:49:46 FLAPS EXTENSION 33 % 0247
2017-02-18 22:49:47 FLAPS EXTENSION 50 % 0247
2017-02-18 22:52:08 PUSHBACK0247
2017-02-18 22:55:02 TAXI TO THE RWY 9247
2017-02-18 23:09:52 ROLLING FOR TAKE OFF42247
2017-02-18 23:10:20 TAKE OFF178249
2017-02-18 23:10:24 GEAR UP188294
2017-02-18 23:10:42 FLAPS EXTENSION 33 % 218862
2017-02-18 23:10:49 FLAPS EXTENSION 17 % 234977
2017-02-18 23:11:35 FLAPS EXTENSION 0 % 2543893
2017-02-18 23:12:33 IAS ABOVE 250 KNOTS BELOW 10000 ft2617688
2017-02-18 23:12:49 LIGHTS OFF BELOW 10000 ft2838164
2017-02-18 23:15:18 STOPPING ENGINE 1 34416180
2017-02-18 23:15:18 STOPPING ENGINE 2 34416180
2017-02-18 23:15:18 STOPPING ENGINE 3 34416180
2017-02-18 23:15:18 STOPPING ENGINE 4 34416180
2017-02-18 23:15:18 STARTING ENGINE 1 34416187
2017-02-18 23:15:18 STARTING ENGINE 2 34416187
2017-02-18 23:15:18 STARTING ENGINE 3 34416187
2017-02-18 23:15:18 STARTING ENGINE 4 34416187
2017-02-18 23:15:32 STOPPING ENGINE 1 34116978
2017-02-18 23:15:32 STOPPING ENGINE 2 34116978
2017-02-18 23:15:32 STOPPING ENGINE 3 34116978
2017-02-18 23:15:32 STOPPING ENGINE 4 34116978
2017-02-18 23:15:33 STARTING ENGINE 1 34017023
2017-02-18 23:15:33 STARTING ENGINE 2 34017023
2017-02-18 23:15:33 STARTING ENGINE 3 34017023
2017-02-18 23:15:33 STARTING ENGINE 4 34017023
2017-02-18 23:15:45 STOPPING ENGINE 1 33517430
2017-02-18 23:15:45 STOPPING ENGINE 2 33517430
2017-02-18 23:15:45 STOPPING ENGINE 3 33517430
2017-02-18 23:15:45 STOPPING ENGINE 4 33517430
2017-02-18 23:15:45 STARTING ENGINE 1 33417441
2017-02-18 23:15:45 STARTING ENGINE 2 33417441
2017-02-18 23:15:45 STARTING ENGINE 3 33417441
2017-02-18 23:15:45 STARTING ENGINE 4 33417441
2017-02-18 23:15:52 STOPPING ENGINE 1 33417329
2017-02-18 23:15:52 STOPPING ENGINE 2 33417329
2017-02-18 23:15:52 STOPPING ENGINE 3 33417329
2017-02-18 23:15:52 STOPPING ENGINE 4 33417329
2017-02-18 23:15:57 STARTING ENGINE 1 33416545
2017-02-18 23:15:59 STARTING ENGINE 2 33416545
2017-02-18 23:15:59 STARTING ENGINE 3 33416545
2017-02-18 23:15:59 STARTING ENGINE 4 33416545
2017-02-18 23:16:02 OVERSPEED33415137
2017-02-18 23:16:06 STOPPING ENGINE 1 33612911
2017-02-18 23:16:06 STOPPING ENGINE 2 33612911
2017-02-18 23:16:06 STOPPING ENGINE 3 33612911
2017-02-18 23:16:06 STOPPING ENGINE 4 33612911
2017-02-18 23:16:10 STARTING ENGINE 1 34410399
2017-02-18 23:16:10 STARTING ENGINE 2 34410399
2017-02-18 23:16:10 STARTING ENGINE 3 34410399
2017-02-18 23:16:10 STARTING ENGINE 4 34410399
2017-02-18 23:16:10 DESCEND34410314
2017-02-18 23:16:16 STOPPING ENGINE 1 3444436
2017-02-18 23:16:16 STOPPING ENGINE 2 3444436
2017-02-18 23:16:16 STOPPING ENGINE 3 3444436
2017-02-18 23:16:16 STOPPING ENGINE 4 3444436
2017-02-18 23:16:21 STARTING ENGINE 1 364188
2017-02-18 23:16:21 STARTING ENGINE 2 364188
2017-02-18 23:16:21 STARTING ENGINE 3 364188
2017-02-18 23:16:21 STARTING ENGINE 4 364188
2017-02-18 23:16:21 STOPPING ENGINE 1 38382
2017-02-18 23:16:21 STOPPING ENGINE 2 38382
2017-02-18 23:16:21 STOPPING ENGINE 3 38382
2017-02-18 23:16:21 STOPPING ENGINE 4 38382
2017-02-18 23:16:40 RECOVER FROM OVERSPEED4149992
2017-02-18 23:16:50 CLIMBING40314896
2017-02-18 23:16:57 STARTING ENGINE 1 38316569
2017-02-18 23:16:57 STARTING ENGINE 2 38316569
2017-02-18 23:16:57 STARTING ENGINE 3 38316569
2017-02-18 23:16:57 STARTING ENGINE 4 38316569
2017-02-18 23:17:06 STOPPING ENGINE 1 30716711
2017-02-18 23:17:06 STOPPING ENGINE 2 30716711
2017-02-18 23:17:06 STOPPING ENGINE 3 30716711
2017-02-18 23:17:06 STOPPING ENGINE 4 30716711
2017-02-18 23:17:07 STALL30716492
2017-02-18 23:17:11 RECOVER FROM STALL30715614
2017-02-18 23:17:12 STARTING ENGINE 1 29815449
2017-02-18 23:17:12 STARTING ENGINE 2 29815449
2017-02-18 23:17:12 STARTING ENGINE 3 29815449
2017-02-18 23:17:12 STARTING ENGINE 4 29815449
2017-02-18 23:17:27 OVERSPEED3689420
2017-02-18 23:17:30 DESCEND4148113
2017-02-18 23:18:00 CLIMBING4718015
2017-02-18 23:19:22 RECOVER FROM OVERSPEED37815503
2017-02-18 23:25:00 CRUISE34424999
2017-02-18 23:25:31 CLIMBING34525342
2017-02-18 23:32:31 CRUISE32530987
2017-02-19 08:19:58 DESCEND30830296
2017-02-19 08:30:24 FLAPS EXTENSION 17 % 24710139
2017-02-19 08:30:33 FLAPS EXTENSION 100 % 24110032
2017-02-19 08:30:33 FLAPS EXTENSION 83 % 24110029
2017-02-19 08:30:34 FLAPS EXTENSION 83 % 24110021
2017-02-19 08:30:34 FLAPS EXTENSION 100 % 24110017
2017-02-19 08:30:34 FLAPS EXTENSION 100 % 24110015
2017-02-19 08:30:34 FLAPS EXTENSION 83 % 24110011
2017-02-19 08:30:34 FLAPS EXTENSION 100 % 24010009
2017-02-19 08:30:35 FLAPS EXTENSION 83 % 2409999
2017-02-19 08:30:35 FLAPS EXTENSION 100 % 2409996
2017-02-19 08:30:35 FLAPS EXTENSION 83 % 2409994
2017-02-19 08:30:35 FLAPS EXTENSION 100 % 2409992
2017-02-19 08:30:35 FLAPS EXTENSION 100 % 2409989
2017-02-19 08:30:35 FLAPS EXTENSION 83 % 2409987
2017-02-19 08:30:35 FLAPS EXTENSION 83 % 2409985
2017-02-19 08:30:36 FLAPS EXTENSION 67 % 2399983
2017-02-19 08:30:36 FLAPS EXTENSION 17 % 2399975
2017-02-19 08:30:37 FLAPS EXTENSION 33 % 2389956
2017-02-19 08:30:38 FLAPS EXTENSION 17 % 2389954
2017-02-19 08:30:39 FLAPS EXTENSION 33 % 2379938
2017-02-19 08:30:46 GEAR DOWN2369738
2017-02-19 08:32:33 FLAPS EXTENSION 50 % 2114939
2017-02-19 08:32:40 FLAPS EXTENSION 67 % 2014820
2017-02-19 08:32:43 FLAPS EXTENSION 83 % 1974777
2017-02-19 08:32:44 FLAPS EXTENSION 100 % 1954756
2017-02-19 08:32:44 FLAPS EXTENSION 83 % 1954754
2017-02-19 08:32:44 FLAPS EXTENSION 83 % 1944753
2017-02-19 08:32:45 FLAPS EXTENSION 83 % 1944749
2017-02-19 08:32:45 FLAPS EXTENSION 100 % 1944746
2017-02-19 08:32:45 FLAPS EXTENSION 100 % 1934744
2017-02-19 08:32:45 FLAPS EXTENSION 83 % 1934742
2017-02-19 08:32:45 FLAPS EXTENSION 100 % 1934739
2017-02-19 08:32:45 FLAPS EXTENSION 83 % 1934737
2017-02-19 08:32:46 FLAPS EXTENSION 83 % 1934734
2017-02-19 08:32:46 FLAPS EXTENSION 100 % 1924732
2017-02-19 08:32:46 FLAPS EXTENSION 100 % 1924728
2017-02-19 08:32:46 FLAPS EXTENSION 83 % 1924726
2017-02-19 08:32:46 FLAPS EXTENSION 83 % 1914724
2017-02-19 08:32:47 FLAPS EXTENSION 100 % 1914721
2017-02-19 08:32:47 FLAPS EXTENSION 100 % 1914719
2017-02-19 08:32:47 FLAPS EXTENSION 100 % 1914717
2017-02-19 08:32:47 FLAPS EXTENSION 83 % 1904715
2017-02-19 08:32:47 FLAPS EXTENSION 100 % 1904713
2017-02-19 08:32:47 FLAPS EXTENSION 83 % 1904710
2017-02-19 08:32:47 FLAPS EXTENSION 83 % 1904708
2017-02-19 08:32:48 FLAPS EXTENSION 100 % 1894706
2017-02-19 08:32:48 FLAPS EXTENSION 83 % 1894704
2017-02-19 08:32:48 FLAPS EXTENSION 100 % 1894700
2017-02-19 08:32:48 FLAPS EXTENSION 83 % 1894697
2017-02-19 08:32:48 FLAPS EXTENSION 83 % 1884695
2017-02-19 08:32:49 FLAPS EXTENSION 100 % 1884693
2017-02-19 08:32:49 FLAPS EXTENSION 100 % 1884690
2017-02-19 08:32:49 FLAPS EXTENSION 100 % 1884688
2017-02-19 08:32:49 FLAPS EXTENSION 83 % 1874686
2017-02-19 08:32:49 FLAPS EXTENSION 100 % 1874681
2017-02-19 08:32:49 FLAPS EXTENSION 83 % 1874679
2017-02-19 08:32:50 FLAPS EXTENSION 100 % 1864677
2017-02-19 08:32:50 FLAPS EXTENSION 83 % 1864675
2017-02-19 08:32:50 FLAPS EXTENSION 83 % 1864671
2017-02-19 08:32:50 FLAPS EXTENSION 83 % 1854667
2017-02-19 08:32:51 FLAPS EXTENSION 83 % 1854663
2017-02-19 08:32:51 FLAPS EXTENSION 83 % 1854662
2017-02-19 08:32:51 FLAPS EXTENSION 83 % 1854659
2017-02-19 08:32:51 FLAPS EXTENSION 83 % 1854657
2017-02-19 08:32:51 FLAPS EXTENSION 83 % 1844656
2017-02-19 08:32:51 FLAPS EXTENSION 100 % 1844649
2017-02-19 08:32:52 FLAPS EXTENSION 100 % 1834647
2017-02-19 08:32:52 FLAPS EXTENSION 83 % 1834644
2017-02-19 08:32:52 FLAPS EXTENSION 100 % 1834636
2017-02-19 08:32:52 FLAPS EXTENSION 83 % 1824633
2017-02-19 08:32:53 FLAPS EXTENSION 100 % 1824630
2017-02-19 08:32:53 FLAPS EXTENSION 83 % 1824627
2017-02-19 08:32:53 FLAPS EXTENSION 100 % 1824625
2017-02-19 08:32:53 FLAPS EXTENSION 83 % 1814622
2017-02-19 08:32:53 FLAPS EXTENSION 100 % 1814619
2017-02-19 08:32:53 FLAPS EXTENSION 83 % 1814616
2017-02-19 08:32:54 FLAPS EXTENSION 100 % 1814614
2017-02-19 08:32:54 FLAPS EXTENSION 100 % 1804611
2017-02-19 08:32:54 FLAPS EXTENSION 100 % 1804608
2017-02-19 08:32:54 FLAPS EXTENSION 100 % 1804606
2017-02-19 08:32:54 FLAPS EXTENSION 100 % 1804601
2017-02-19 08:32:55 FLAPS EXTENSION 83 % 1794598
2017-02-19 08:32:55 FLAPS EXTENSION 100 % 1794595
2017-02-19 08:32:55 FLAPS EXTENSION 83 % 1794593
2017-02-19 08:32:55 FLAPS EXTENSION 100 % 1794590
2017-02-19 08:32:55 FLAPS EXTENSION 83 % 1784588
2017-02-19 08:32:55 FLAPS EXTENSION 83 % 1784585
2017-02-19 08:32:56 FLAPS EXTENSION 83 % 1784582
2017-02-19 08:32:56 FLAPS EXTENSION 100 % 1784579
2017-02-19 08:32:56 FLAPS EXTENSION 83 % 1774576
2017-02-19 08:32:56 FLAPS EXTENSION 83 % 1774569
2017-02-19 08:32:57 FLAPS EXTENSION 83 % 1774566
2017-02-19 08:32:57 FLAPS EXTENSION 100 % 1764563
2017-02-19 08:32:57 FLAPS EXTENSION 83 % 1764560
2017-02-19 08:32:57 FLAPS EXTENSION 100 % 1764557
2017-02-19 08:32:57 FLAPS EXTENSION 83 % 1764555
2017-02-19 08:32:57 FLAPS EXTENSION 83 % 1754552
2017-02-19 08:32:58 FLAPS EXTENSION 83 % 1754549
2017-02-19 08:32:58 FLAPS EXTENSION 100 % 1754546
2017-02-19 08:32:58 FLAPS EXTENSION 83 % 1754544
2017-02-19 08:32:58 FLAPS EXTENSION 100 % 1744541
2017-02-19 08:32:58 FLAPS EXTENSION 83 % 1744539
2017-02-19 08:32:58 FLAPS EXTENSION 83 % 1744536
2017-02-19 08:32:59 FLAPS EXTENSION 100 % 1744534
2017-02-19 08:32:59 FLAPS EXTENSION 100 % 1744531
2017-02-19 08:32:59 FLAPS EXTENSION 100 % 1734528
2017-02-19 08:32:59 FLAPS EXTENSION 100 % 1734525
2017-02-19 08:32:59 FLAPS EXTENSION 83 % 1734523
2017-02-19 08:33:00 FLAPS EXTENSION 100 % 1724517
2017-02-19 08:33:00 FLAPS EXTENSION 83 % 1724512
2017-02-19 08:33:00 FLAPS EXTENSION 100 % 1714508
2017-02-19 08:33:00 FLAPS EXTENSION 100 % 1714506
2017-02-19 08:33:00 FLAPS EXTENSION 83 % 1714503
2017-02-19 08:33:01 FLAPS EXTENSION 100 % 1714500
2017-02-19 08:33:01 FLAPS EXTENSION 83 % 1714498
2017-02-19 08:33:01 FLAPS EXTENSION 100 % 1704495
2017-02-19 08:33:01 FLAPS EXTENSION 83 % 1704493
2017-02-19 08:33:01 FLAPS EXTENSION 100 % 1704491
2017-02-19 08:38:41 LANDING WITH LANDING LIGHTS OFF140302
2017-02-19 08:38:41 LANDING140302
2017-02-19 08:39:02 FLAPS EXTENSION 33 % 55301
2017-02-19 08:39:08 STOPPING ENGINE 2 60301
2017-02-19 08:39:08 STOPPING ENGINE 3 60301
2017-02-19 08:39:08 STARTING ENGINE 2 60301
2017-02-19 08:39:08 STARTING ENGINE 3 60301
2017-02-19 08:39:09 STOPPING ENGINE 2 60301
2017-02-19 08:39:09 STOPPING ENGINE 3 60301
2017-02-19 08:39:09 STARTING ENGINE 2 60301
2017-02-19 08:39:09 STARTING ENGINE 3 60301
2017-02-19 08:39:09 STOPPING ENGINE 2 61301
2017-02-19 08:39:09 STOPPING ENGINE 3 61301
2017-02-19 08:39:09 STARTING ENGINE 2 61301
2017-02-19 08:39:09 STARTING ENGINE 3 61301
2017-02-19 08:39:10 STOPPING ENGINE 2 61301
2017-02-19 08:39:10 STOPPING ENGINE 3 61301
2017-02-19 08:39:10 STARTING ENGINE 2 61301
2017-02-19 08:39:10 STARTING ENGINE 3 61301
2017-02-19 08:39:10 STOPPING ENGINE 2 61301
2017-02-19 08:39:10 STOPPING ENGINE 3 61301
2017-02-19 08:39:10 STARTING ENGINE 2 61301
2017-02-19 08:39:10 STARTING ENGINE 3 61301
2017-02-19 08:39:11 STOPPING ENGINE 2 61301
2017-02-19 08:39:11 STOPPING ENGINE 3 61301
2017-02-19 08:39:14 STARTING ENGINE 2 60301
2017-02-19 08:39:14 STARTING ENGINE 3 60301
2017-02-19 08:39:19 FLAPS EXTENSION 17 % 59301
2017-02-19 08:39:43 TAXI TO THE GATE20301
2017-02-19 08:39:54 TAXI SPEED ABOVE 25 KTS24301
2017-02-19 08:40:05 FLAPS EXTENSION 0 % 25301
 ACARS DATA
DATE IASGSALTITUDEFUEL CONSUMED OATFLIGHT STATUS
2017-02-18 22:49:10002464114BOARDING
2017-02-18 22:50:10002468214BOARDING
2017-02-18 22:51:100024612215BOARDING
2017-02-18 22:52:100024616315BOARDING
2017-02-18 22:53:100024621515BOARDING
2017-02-18 22:54:100024630715BOARDING
2017-02-18 22:55:10171824645515TAXI TO THE RWY
2017-02-18 22:56:10111124656315TAXI TO THE RWY
2017-02-18 22:57:106624666515TAXI TO THE RWY
2017-02-18 22:58:10272224683615TAXI TO THE RWY
2017-02-18 22:59:10131224697115TAXI TO THE RWY
2017-02-18 23:00:101717246114915TAXI TO THE RWY
2017-02-18 23:01:101920246131815TAXI TO THE RWY
2017-02-18 23:02:1078246142015TAXI TO THE RWY
2017-02-18 23:03:1000246159815TAXI TO THE RWY
2017-02-18 23:04:1000246163815TAXI TO THE RWY
2017-02-18 23:05:1000246168015TAXI TO THE RWY
2017-02-18 23:06:1000246172015TAXI TO THE RWY
2017-02-18 23:07:1067246178315TAXI TO THE RWY
2017-02-18 23:08:1000246189315TAXI TO THE RWY
2017-02-18 23:09:1000246196815TAXI TO THE RWY
2017-02-18 23:10:10138141246235515TAXI TO THE RWY
2017-02-18 23:11:102512502171330911CLIMBING
2017-02-18 23:12:10252260648141252CLIMBING
2017-02-18 23:13:1028431993714846-2CLIMBING
2017-02-18 23:14:10345398116515501-7CLIMBING
2017-02-18 23:15:10344419157286080-15CLIMBING
2017-02-18 23:16:10344316101446169-6DESCEND
2017-02-18 23:17:1030690158876226-16CLIMBING
2017-02-18 23:18:1045949090096762-2CLIMBING
2017-02-18 23:19:10390460145537311-13CLIMBING
2017-02-18 23:20:10342438185797751-21CLIMBING
2017-02-18 23:21:10344452204368144-24CLIMBING
2017-02-18 23:22:10344463220368517-27CLIMBING
2017-02-18 23:23:10344473234318869-30CLIMBING
2017-02-18 23:24:10344474245919202-33CLIMBING
2017-02-18 23:25:11344476250269468-33CRUISE
2017-02-18 23:26:11344483260199783-35CLIMBING
2017-02-18 23:27:103444902692110093-37CLIMBING
2017-02-18 23:28:103414932786510392-39CLIMBING
2017-02-18 23:29:103354922885310684-41CLIMBING
2017-02-18 23:30:113294922974410966-43CLIMBING
2017-02-18 23:31:113255093036011241-44CLIMBING
2017-02-18 23:32:103225143098411513-45CLIMBING
2017-02-18 23:33:113235153099311741-45CRUISE
2017-02-18 23:34:113235153099611964-45CRUISE
2017-02-18 23:35:113215133099712179-45CRUISE
2017-02-18 23:36:113215123099712396-45CRUISE
2017-02-18 23:37:113215123099712616-45CRUISE
2017-02-18 23:38:113215123099812834-45CRUISE
2017-02-18 23:39:113215123099813053-45CRUISE
2017-02-18 23:40:113215123099813268-45CRUISE
2017-02-18 23:41:113215123099813487-45CRUISE
2017-02-18 23:42:113215123099813708-45CRUISE
2017-02-18 23:43:113215123099813924-45CRUISE
2017-02-18 23:44:113215113099814143-45CRUISE
2017-02-18 23:45:113215113099814363-45CRUISE
2017-02-18 23:46:113215113099814581-46CRUISE
2017-02-18 23:47:113215113099814799-46CRUISE
2017-02-18 23:48:113215113099815019-46CRUISE
2017-02-18 23:49:113215113099815238-46CRUISE
2017-02-18 23:50:113215113099815453-46CRUISE
2017-02-18 23:51:113215113099815668-46CRUISE
2017-02-18 23:52:113215113099815886-46CRUISE
2017-02-18 23:53:113215113099816101-46CRUISE
2017-02-18 23:54:113215113099816316-46CRUISE
2017-02-18 23:55:113215113099816533-46CRUISE
2017-02-18 23:56:113215113099816749-46CRUISE
2017-02-18 23:57:113215113099816968-46CRUISE
2017-02-18 23:58:113215113099817181-46CRUISE
2017-02-18 23:59:113215113099817395-46CRUISE
2017-02-19 00:00:113215113099817614-46CRUISE
2017-02-19 00:01:113215113099817831-46CRUISE
2017-02-19 00:02:113215113099818047-46CRUISE
2017-02-19 00:03:113215113099818264-46CRUISE
2017-02-19 00:04:113215113099818481-46CRUISE
2017-02-19 00:05:113215113099818698-46CRUISE
2017-02-19 00:06:113215113099818914-46CRUISE
2017-02-19 00:07:113215113099819130-46CRUISE
2017-02-19 00:08:113215113099819344-46CRUISE
2017-02-19 00:09:113215113099819562-46CRUISE
2017-02-19 00:10:113215113099819779-46CRUISE
2017-02-19 00:11:113215113099619996-46CRUISE
2017-02-19 00:12:113215113099620214-46CRUISE
2017-02-19 00:13:113215113099820429-46CRUISE
2017-02-19 00:14:113215113099820646-46CRUISE
2017-02-19 00:15:113215113099820859-46CRUISE
2017-02-19 00:16:113215113099821076-46CRUISE
2017-02-19 00:17:113215113099821292-46CRUISE
2017-02-19 00:18:113215113099821507-46CRUISE
2017-02-19 00:19:113205113099821724-46CRUISE
2017-02-19 00:20:113205113099821939-46CRUISE
2017-02-19 00:21:113205113099822154-46CRUISE
2017-02-19 00:22:113205113099822368-46CRUISE
2017-02-19 00:23:113205113099822579-46CRUISE
2017-02-19 00:24:113205113099822792-46CRUISE
2017-02-19 00:25:113205113099823008-46CRUISE
2017-02-19 00:26:113205113099823219-46CRUISE
2017-02-19 00:27:113205113099823433-46CRUISE
2017-02-19 00:28:113205113099823647-46CRUISE
2017-02-19 00:29:113205113099823861-46CRUISE
2017-02-19 00:30:113205113099824073-46CRUISE
2017-02-19 00:31:113205113099824286-46CRUISE
2017-02-19 00:32:113205113099824501-46CRUISE
2017-02-19 00:33:113205113099824713-46CRUISE
2017-02-19 00:34:113205113099824928-46CRUISE
2017-02-19 00:35:113205113099825144-46CRUISE
2017-02-19 00:36:113205113099825357-46CRUISE
2017-02-19 00:37:113205113099825571-46CRUISE
2017-02-19 00:38:113205113099825782-46CRUISE
2017-02-19 00:39:113205113099825997-46CRUISE
2017-02-19 00:40:113205113099826207-46CRUISE
2017-02-19 00:41:113205113099826418-46CRUISE
2017-02-19 00:42:113205113099826627-46CRUISE
2017-02-19 00:43:123205113099826840-46CRUISE
2017-02-19 00:44:123205113099827053-46CRUISE
2017-02-19 00:45:123205113099827262-46CRUISE
2017-02-19 00:46:123205113099827473-46CRUISE
2017-02-19 00:47:123205113099827684-46CRUISE
2017-02-19 00:48:123205113099827894-46CRUISE
2017-02-19 00:49:123205103099728108-46CRUISE
2017-02-19 00:50:123205083099828320-46CRUISE
2017-02-19 00:51:123205093099828535-46CRUISE
2017-02-19 00:52:123205093099828745-46CRUISE
2017-02-19 00:53:123205093099828955-46CRUISE
2017-02-19 00:54:123205093099829164-46CRUISE
2017-02-19 00:55:123205093099829377-46CRUISE
2017-02-19 00:56:123205093099829591-46CRUISE
2017-02-19 00:57:123205093099829804-46CRUISE
2017-02-19 00:58:123205093099830016-46CRUISE
2017-02-19 00:59:123205093099830226-46CRUISE
2017-02-19 01:00:123205093099830436-46CRUISE
2017-02-19 01:01:123205093099830644-46CRUISE
2017-02-19 01:02:123205093099830856-46CRUISE
2017-02-19 01:03:123205093099831067-46CRUISE
2017-02-19 01:04:123205093099831278-46CRUISE
2017-02-19 01:05:123205093099831488-46CRUISE
2017-02-19 01:06:123205093099831697-46CRUISE
2017-02-19 01:07:123205093099831908-46CRUISE
2017-02-19 01:08:123205093099832121-46CRUISE
2017-02-19 01:09:123205093099832332-46CRUISE
2017-02-19 01:10:123205093099832542-46CRUISE
2017-02-19 01:11:123205093099832752-46CRUISE
2017-02-19 01:12:123205093099832962-46CRUISE
2017-02-19 01:13:123205093099833173-46CRUISE
2017-02-19 01:14:123205093099833383-46CRUISE
2017-02-19 01:15:123195083099833587-46CRUISE
2017-02-19 01:16:123195083099833796-46CRUISE
2017-02-19 01:17:123195083099834006-46CRUISE
2017-02-19 01:18:123195083099834215-46CRUISE
2017-02-19 01:19:123195083099834424-46CRUISE
2017-02-19 01:20:123195083099834633-46CRUISE
2017-02-19 01:21:123195083099834841-46CRUISE
2017-02-19 01:22:123195083099835050-46CRUISE
2017-02-19 01:23:123195083099835258-46CRUISE
2017-02-19 01:24:123195083099835469-46CRUISE
2017-02-19 01:25:123195083099835678-46CRUISE
2017-02-19 01:26:123195083099835888-46CRUISE
2017-02-19 01:27:123195083099836097-46CRUISE
2017-02-19 01:28:123195083099836304-46CRUISE
2017-02-19 01:29:123195083099836512-46CRUISE
2017-02-19 01:30:123195083099836719-46CRUISE
2017-02-19 01:31:123195083099836930-46CRUISE
2017-02-19 01:32:123195083099837136-46CRUISE
2017-02-19 01:33:123195083099837343-46CRUISE
2017-02-19 01:34:123195083099837552-46CRUISE
2017-02-19 01:35:123195083099837765-46CRUISE
2017-02-19 01:36:123195083099837972-46CRUISE
2017-02-19 01:37:123195083099838178-46CRUISE
2017-02-19 01:38:123195083099838386-46CRUISE
2017-02-19 01:39:123195083099838597-46CRUISE
2017-02-19 01:40:123195083099838803-46CRUISE
2017-02-19 01:41:123195073099839010-46CRUISE
2017-02-19 01:42:123195073099839215-46CRUISE
2017-02-19 01:43:123195073099839423-46CRUISE
2017-02-19 01:44:123195073099839629-46CRUISE
2017-02-19 01:45:123195073099839837-46CRUISE
2017-02-19 01:46:123195073099840039-46CRUISE
2017-02-19 01:47:123195073099840243-46CRUISE
2017-02-19 01:48:123195083099840451-46CRUISE
2017-02-19 01:49:123195083099840660-46CRUISE
2017-02-19 01:50:123195083099840864-46CRUISE
2017-02-19 01:51:123195083099841075-46CRUISE
2017-02-19 01:52:123195083099841280-46CRUISE
2017-02-19 01:53:123195083099841491-46CRUISE
2017-02-19 01:54:123195083099841701-46CRUISE
2017-02-19 01:55:123195083099841907-46CRUISE
2017-02-19 01:56:123195083099842116-46CRUISE
2017-02-19 01:57:123195073099842322-46CRUISE
2017-02-19 01:58:133195073099842528-46CRUISE
2017-02-19 01:59:123195073099842732-46CRUISE
2017-02-19 02:00:133195073099842939-46CRUISE
2017-02-19 02:01:133195073099843145-46CRUISE
2017-02-19 02:02:133195073099843348-46CRUISE
2017-02-19 02:03:133195073099843552-46CRUISE
2017-02-19 02:04:133195073099843758-46CRUISE
2017-02-19 02:05:133195073099843962-46CRUISE
2017-02-19 02:06:133195073099844170-46CRUISE
2017-02-19 02:07:133195073099844376-46CRUISE
2017-02-19 02:08:133195073099844579-46CRUISE
2017-02-19 02:09:133185073099844783-46CRUISE
2017-02-19 02:10:133185073099844989-46CRUISE
2017-02-19 02:11:133185073099845194-46CRUISE
2017-02-19 02:12:133185073099845397-46CRUISE
2017-02-19 02:13:133185073099845602-46CRUISE
2017-02-19 02:14:133185073099845810-46CRUISE
2017-02-19 02:15:133185073099846011-46CRUISE
2017-02-19 02:16:133185073099846215-46CRUISE
2017-02-19 02:17:133185073099846422-46CRUISE
2017-02-19 02:18:133185073099846625-46CRUISE
2017-02-19 02:19:133185073099846827-46CRUISE
2017-02-19 02:20:133185073099847029-46CRUISE
2017-02-19 02:21:133185073099847235-46CRUISE
2017-02-19 02:22:133185073099847437-46CRUISE
2017-02-19 02:23:133185073099847644-46CRUISE
2017-02-19 02:24:133185073099847848-46CRUISE
2017-02-19 02:25:133185073099848053-46CRUISE
2017-02-19 02:26:133185073099848254-46CRUISE
2017-02-19 02:27:133185073099848457-46CRUISE
2017-02-19 02:28:133185073099848657-46CRUISE
2017-02-19 02:29:133185073099848861-46CRUISE
2017-02-19 02:30:133185083099849065-46CRUISE
2017-02-19 02:31:133185083099849266-46CRUISE
2017-02-19 02:32:133185083099849466-46CRUISE
2017-02-19 02:33:133185083099849668-46CRUISE
2017-02-19 02:34:133185083099849871-46CRUISE
2017-02-19 02:35:133185083099850076-46CRUISE
2017-02-19 02:36:133185083099850279-46CRUISE
2017-02-19 02:37:133185083099850475-46CRUISE
2017-02-19 02:38:133185083099850678-46CRUISE
2017-02-19 02:39:133185073099850878-46CRUISE
2017-02-19 02:40:133185073099851079-46CRUISE
2017-02-19 02:41:133185073099851282-46CRUISE
2017-02-19 02:42:133185073099851486-46CRUISE
2017-02-19 02:43:133185073099851686-46CRUISE
2017-02-19 02:44:133185073099851888-46CRUISE
2017-02-19 02:45:133185073099852088-46CRUISE
2017-02-19 02:46:133185073099852287-46CRUISE
2017-02-19 02:47:133185073099852486-46CRUISE
2017-02-19 02:48:133185073099852690-46CRUISE
2017-02-19 02:49:133185073099852891-46CRUISE
2017-02-19 02:50:133185083099853092-46CRUISE
2017-02-19 02:51:133185083099853295-46CRUISE
2017-02-19 02:52:133185083099853494-46CRUISE
2017-02-19 02:53:133185083099853694-46CRUISE
2017-02-19 02:54:133185083099853893-46CRUISE
2017-02-19 02:55:133185083099854093-46CRUISE
2017-02-19 02:56:133185083099854293-46CRUISE
2017-02-19 02:57:133185083099854494-46CRUISE
2017-02-19 02:58:133185083099854691-46CRUISE
2017-02-19 02:59:133185083099854893-46CRUISE
2017-02-19 03:00:133185083099855095-46CRUISE
2017-02-19 03:01:133185083099855299-46CRUISE
2017-02-19 03:02:133185083099855499-46CRUISE
2017-02-19 03:03:133185083099855700-46CRUISE
2017-02-19 03:04:133185083099855900-46CRUISE
2017-02-19 03:05:133185083099856099-46CRUISE
2017-02-19 03:06:133185083099856299-46CRUISE
2017-02-19 03:07:133175073099856498-46CRUISE
2017-02-19 03:08:133185063099856700-46CRUISE
2017-02-19 03:09:143185063099856899-46CRUISE
2017-02-19 03:10:133185063099857099-46CRUISE
2017-02-19 03:11:143185063099857298-46CRUISE
2017-02-19 03:12:133185063099857499-46CRUISE
2017-02-19 03:13:143185063099857703-46CRUISE
2017-02-19 03:14:143185063099857904-46CRUISE
2017-02-19 03:15:143185063099858100-46CRUISE
2017-02-19 03:16:143185073099858299-46CRUISE
2017-02-19 03:17:143185063099858498-46CRUISE
2017-02-19 03:18:143185073099858694-46CRUISE
2017-02-19 03:19:143185073099858888-46CRUISE
2017-02-19 03:20:143185073099859084-46CRUISE
2017-02-19 03:21:143185073099859281-46CRUISE
2017-02-19 03:22:143185073099859479-46CRUISE
2017-02-19 03:23:143185073099859678-46CRUISE
2017-02-19 03:24:143185073099859875-46CRUISE
2017-02-19 03:25:143185073099860074-46CRUISE
2017-02-19 03:26:143185073099860273-46CRUISE
2017-02-19 03:27:143185073099860472-46CRUISE
2017-02-19 03:28:143185073099860672-46CRUISE
2017-02-19 03:29:143185073099860868-46CRUISE
2017-02-19 03:30:143185073099861061-46CRUISE
2017-02-19 03:31:143185073099861259-46CRUISE
2017-02-19 03:32:143185073099861456-46CRUISE
2017-02-19 03:33:143185073099861655-46CRUISE
2017-02-19 03:34:143185073099861851-46CRUISE
2017-02-19 03:35:143185073099862046-46CRUISE
2017-02-19 03:36:143185073099862242-46CRUISE
2017-02-19 03:37:143175063099862438-46CRUISE
2017-02-19 03:38:143175063099862635-46CRUISE
2017-02-19 03:39:143175063099862831-46CRUISE
2017-02-19 03:40:143175063099863025-46CRUISE
2017-02-19 03:41:143175063099863223-46CRUISE
2017-02-19 03:42:143175063099863421-46CRUISE
2017-02-19 03:43:143175063099863614-46CRUISE
2017-02-19 03:44:143175073099763813-46CRUISE
2017-02-19 03:45:143175083099864012-46CRUISE
2017-02-19 03:46:143175083099864209-46CRUISE
2017-02-19 03:47:143175083099864407-46CRUISE
2017-02-19 03:48:143175083099864603-46CRUISE
2017-02-19 03:49:143175083099864802-46CRUISE
2017-02-19 03:50:143175083099864996-46CRUISE
2017-02-19 03:51:143175083099865194-46CRUISE
2017-02-19 03:52:143175083099865392-46CRUISE
2017-02-19 03:53:143175083099865587-46CRUISE
2017-02-19 03:54:143175083099865782-46CRUISE
2017-02-19 03:55:143175083099865980-46CRUISE
2017-02-19 03:56:143175083099866175-46CRUISE
2017-02-19 03:57:143175083099866373-46CRUISE
2017-02-19 03:58:143175083099866567-46CRUISE
2017-02-19 03:59:143175083099866761-46CRUISE
2017-02-19 04:00:143175083099866957-46CRUISE
2017-02-19 04:01:143175083099867151-46CRUISE
2017-02-19 04:02:143175083099867345-46CRUISE
2017-02-19 04:03:143175083099867540-46CRUISE
2017-02-19 04:04:143175083099867739-46CRUISE
2017-02-19 04:05:143175083099867933-46CRUISE
2017-02-19 04:06:143175083099868128-46CRUISE
2017-02-19 04:07:143175083099868326-46CRUISE
2017-02-19 04:08:143175083099868517-46CRUISE
2017-02-19 04:09:143175083099868710-46CRUISE
2017-02-19 04:10:143175083099868904-46CRUISE
2017-02-19 04:11:143175083099869098-46CRUISE
2017-02-19 04:12:143175083099869292-46CRUISE
2017-02-19 04:13:143175083099869486-46CRUISE
2017-02-19 04:14:143175083099869680-46CRUISE
2017-02-19 04:15:143175083099869873-46CRUISE
2017-02-19 04:16:143175083099870072-46CRUISE
2017-02-19 04:17:143175083099870268-46CRUISE
2017-02-19 04:18:143175083099870459-46CRUISE
2017-02-19 04:19:143175083099870651-46CRUISE
2017-02-19 04:20:143175083099870847-46CRUISE
2017-02-19 04:21:143175083099871039-46CRUISE
2017-02-19 04:22:143175083099871233-46CRUISE
2017-02-19 04:23:143175083099871426-46CRUISE
2017-02-19 04:24:143175083099871620-46CRUISE
2017-02-19 04:25:143175083099871814-46CRUISE
2017-02-19 04:26:143175083099872005-46CRUISE
2017-02-19 04:27:143175083099872197-46CRUISE
2017-02-19 04:28:153175083099872391-46CRUISE
2017-02-19 04:29:153175083099872586-46CRUISE
2017-02-19 04:30:153175083099872776-46CRUISE
2017-02-19 04:31:153175083099872972-46CRUISE
2017-02-19 04:32:153175083099873162-46CRUISE
2017-02-19 04:33:153175083099873356-46CRUISE
2017-02-19 04:34:153175083099873552-46CRUISE
2017-02-19 04:35:153175083099873746-46CRUISE
2017-02-19 04:36:153175083099873935-46CRUISE
2017-02-19 04:37:153175083099874125-46CRUISE
2017-02-19 04:38:153175083099874321-46CRUISE
2017-02-19 04:39:153165083099874513-46CRUISE
2017-02-19 04:40:153165083099874710-46CRUISE
2017-02-19 04:41:153165083099874901-46CRUISE
2017-02-19 04:42:153165083099875091-46CRUISE
2017-02-19 04:43:153165083099875283-46CRUISE
2017-02-19 04:44:153165083099875474-46CRUISE
2017-02-19 04:45:153165083099875664-46CRUISE
2017-02-19 04:46:153165083099875855-46CRUISE
2017-02-19 04:47:153165083099876050-46CRUISE
2017-02-19 04:48:153165083099876241-46CRUISE
2017-02-19 04:49:153165083099876432-46CRUISE
2017-02-19 04:50:153165083099876625-46CRUISE
2017-02-19 04:51:153165083099876813-46CRUISE
2017-02-19 04:52:153165083099877006-46CRUISE
2017-02-19 04:53:153165083099877199-46CRUISE
2017-02-19 04:54:153165073099877395-46CRUISE
2017-02-19 04:55:153165073099877581-46CRUISE
2017-02-19 04:56:153165073099877770-46CRUISE
2017-02-19 04:57:153165073099877959-46CRUISE
2017-02-19 04:58:153165073099878148-46CRUISE
2017-02-19 04:59:153165073099878337-46CRUISE
2017-02-19 05:00:153165073099878527-46CRUISE
2017-02-19 05:01:153165073099878713-46CRUISE
2017-02-19 05:02:153165073099878901-46CRUISE
2017-02-19 05:03:153165073099879089-46CRUISE
2017-02-19 05:04:153165083099879281-46CRUISE
2017-02-19 05:05:153165083099879472-46CRUISE
2017-02-19 05:06:153165083099879660-46CRUISE
2017-02-19 05:07:153165073099879846-46CRUISE
2017-02-19 05:08:153165073099880035-46CRUISE
2017-02-19 05:09:153165073099880220-46CRUISE
2017-02-19 05:10:153165073099880408-46CRUISE
2017-02-19 05:11:153165073099880596-46CRUISE
2017-02-19 05:12:153165073099880784-46CRUISE
2017-02-19 05:13:153165073099880976-46CRUISE
2017-02-19 05:14:153165073099881163-46CRUISE
2017-02-19 05:15:153165073099881351-46CRUISE
2017-02-19 05:16:153165073099881538-46CRUISE
2017-02-19 05:17:153165073099881727-46CRUISE
2017-02-19 05:18:153165073099881915-46CRUISE
2017-02-19 05:19:153165073099882102-46CRUISE
2017-02-19 05:20:153165073099882289-46CRUISE
2017-02-19 05:21:153165073099882477-46CRUISE
2017-02-19 05:22:153165073099882665-46CRUISE
2017-02-19 05:23:153165073099882855-46CRUISE
2017-02-19 05:24:153165073099883046-46CRUISE
2017-02-19 05:25:153165073099883232-46CRUISE
2017-02-19 05:26:153165073099883421-46CRUISE
2017-02-19 05:27:153165073099883609-46CRUISE
2017-02-19 05:28:153165073099883795-46CRUISE
2017-02-19 05:29:153165083099783981-46CRUISE
2017-02-19 05:30:153165093099984168-46CRUISE
2017-02-19 05:31:153165093099884353-46CRUISE
2017-02-19 05:32:153165093099884536-46CRUISE
2017-02-19 05:33:153165093099884721-46CRUISE
2017-02-19 05:34:153165093099884908-46CRUISE
2017-02-19 05:35:153155083099885090-46CRUISE
2017-02-19 05:36:163155083099885277-46CRUISE
2017-02-19 05:37:153155083099885462-46CRUISE
2017-02-19 05:38:153155083099885648-46CRUISE
2017-02-19 05:39:153155083099885832-46CRUISE
2017-02-19 05:40:163155083099886020-46CRUISE
2017-02-19 05:41:163155083099886204-46CRUISE
2017-02-19 05:42:163155083099886389-46CRUISE
2017-02-19 05:43:163155083099886572-46CRUISE
2017-02-19 05:44:163155083099886762-46CRUISE
2017-02-19 05:45:163155083099886947-46CRUISE
2017-02-19 05:46:163155083099887132-46CRUISE
2017-02-19 05:47:163155083099887316-46CRUISE
2017-02-19 05:48:163155083099887500-46CRUISE
2017-02-19 05:49:163155083099887684-46CRUISE
2017-02-19 05:50:163155083099887868-46CRUISE
2017-02-19 05:51:163155083099888048-46CRUISE
2017-02-19 05:52:163155083099888234-46CRUISE
2017-02-19 05:53:163155083099888418-46CRUISE
2017-02-19 05:54:163155083099888602-46CRUISE
2017-02-19 05:55:163155083099888786-46CRUISE
2017-02-19 05:56:163155083099888969-46CRUISE
2017-02-19 05:57:163155093099889156-46CRUISE
2017-02-19 05:58:163155093099889340-46CRUISE
2017-02-19 05:59:163155093099889526-46CRUISE
2017-02-19 06:00:163165083099889711-46CRUISE
2017-02-19 06:01:163155083099889895-46CRUISE
2017-02-19 06:02:163155083099890080-46CRUISE
2017-02-19 06:03:163155073099890261-46CRUISE
2017-02-19 06:04:163155083099890440-46CRUISE
2017-02-19 06:05:163155073099890624-46CRUISE
2017-02-19 06:06:163155083099890805-46CRUISE
2017-02-19 06:07:163155073099890986-46CRUISE
2017-02-19 06:08:163155083099891172-46CRUISE
2017-02-19 06:09:163155083099891355-46CRUISE
2017-02-19 06:10:163155083099891535-46CRUISE
2017-02-19 06:11:163155083099891718-46CRUISE
2017-02-19 06:12:163155083099891898-46CRUISE
2017-02-19 06:13:163155083099892077-46CRUISE
2017-02-19 06:14:163155083099892260-46CRUISE
2017-02-19 06:15:163155083099892439-46CRUISE
2017-02-19 06:16:163155083100092619-46CRUISE
2017-02-19 06:17:163155083099992800-46CRUISE
2017-02-19 06:18:163155083099892984-46CRUISE
2017-02-19 06:19:163155083099893165-46CRUISE
2017-02-19 06:20:163155083099893347-46CRUISE
2017-02-19 06:21:163155083099893528-46CRUISE
2017-02-19 06:22:163155083099893709-46CRUISE
2017-02-19 06:23:163155083099893893-46CRUISE
2017-02-19 06:24:163155083099894074-46CRUISE
2017-02-19 06:25:163155083099894258-46CRUISE
2017-02-19 06:26:163155083099894438-46CRUISE
2017-02-19 06:27:163155083099894617-46CRUISE
2017-02-19 06:28:163155073099894797-46CRUISE
2017-02-19 06:29:163155073099894976-46CRUISE
2017-02-19 06:30:163155073099895156-46CRUISE
2017-02-19 06:31:163155073099895339-46CRUISE
2017-02-19 06:32:163155073099895521-46CRUISE
2017-02-19 06:33:163155073099895697-46CRUISE
2017-02-19 06:34:163155073099895878-46CRUISE
2017-02-19 06:35:163155073099896059-46CRUISE
2017-02-19 06:36:163155073099896239-46CRUISE
2017-02-19 06:37:163155073099896421-46CRUISE
2017-02-19 06:38:163155073099896603-46CRUISE
2017-02-19 06:39:163155073099896781-46CRUISE
2017-02-19 06:40:163155073099896960-46CRUISE
2017-02-19 06:41:163155073099897139-46CRUISE
2017-02-19 06:42:163155073099897314-46CRUISE
2017-02-19 06:43:163155073099897491-46CRUISE
2017-02-19 06:44:163155073099897669-46CRUISE
2017-02-19 06:45:163155073099897845-46CRUISE
2017-02-19 06:46:163155073099898026-46CRUISE
2017-02-19 06:47:163155073099898204-46CRUISE
2017-02-19 06:48:163155073099998381-46CRUISE
2017-02-19 06:49:173155073099998561-46CRUISE
2017-02-19 06:50:173155073100098739-46CRUISE
2017-02-19 06:51:173155073099898917-46CRUISE
2017-02-19 06:52:173145073099199095-46CRUISE
2017-02-19 06:53:173145073099999274-46CRUISE
2017-02-19 06:54:173145073098699453-46CRUISE
2017-02-19 06:55:173145073101999632-46CRUISE
2017-02-19 06:56:173155063098599819-46CRUISE
2017-02-19 06:57:173145053099799996-46CRUISE
2017-02-19 06:58:1731450531002100172-46CRUISE
2017-02-19 06:59:1731450530997100352-46CRUISE
2017-02-19 07:00:1732952531003100588-46CRUISE
2017-02-19 07:01:1734053830999100803-46CRUISE
2017-02-19 07:02:1734053931001100995-46CRUISE
2017-02-19 07:03:1734053931001101185-46CRUISE
2017-02-19 07:04:1734053930999101379-46CRUISE
2017-02-19 07:05:1734053930996101571-46CRUISE
2017-02-19 07:06:1734054030996101763-46CRUISE
2017-02-19 07:07:1734054030998101953-46CRUISE
2017-02-19 07:08:1734054031000102143-46CRUISE
2017-02-19 07:09:1734054030999102334-46CRUISE
2017-02-19 07:10:1734054030998102528-46CRUISE
2017-02-19 07:11:1734054030996102719-46CRUISE
2017-02-19 07:12:1734054031001102908-46CRUISE
2017-02-19 07:13:1734054030998103101-46CRUISE
2017-02-19 07:14:1734054030999103292-46CRUISE
2017-02-19 07:15:1734054030998103482-46CRUISE
2017-02-19 07:16:1734054030998103675-46CRUISE
2017-02-19 07:17:1734054030994103866-46CRUISE
2017-02-19 07:18:1734053830999104064-46CRUISE
2017-02-19 07:19:1734053531000104253-46CRUISE
2017-02-19 07:20:1734053530998104441-46CRUISE
2017-02-19 07:21:1734053530998104630-46CRUISE
2017-02-19 07:22:1734053530995104821-46CRUISE
2017-02-19 07:23:1734053530998105011-46CRUISE
2017-02-19 07:24:1734053530993105201-46CRUISE
2017-02-19 07:25:1734053830989105391-46CRUISE
2017-02-19 07:26:1734053930998105583-46CRUISE
2017-02-19 07:27:1734053830995105776-46CRUISE
2017-02-19 07:28:1734053530999105964-46CRUISE
2017-02-19 07:29:1734053530998106155-46CRUISE
2017-02-19 07:30:1734053530998106344-46CRUISE
2017-02-19 07:31:1734053530998106534-46CRUISE
2017-02-19 07:32:1734053530998106723-46CRUISE
2017-02-19 07:33:1734053530998106913-46CRUISE
2017-02-19 07:34:1734053530998107103-46CRUISE
2017-02-19 07:35:1734053530998107291-46CRUISE
2017-02-19 07:36:1734053530998107479-46CRUISE
2017-02-19 07:37:1734053630995107670-46CRUISE
2017-02-19 07:38:1734053930998107858-46CRUISE
2017-02-19 07:39:1734053930998108051-46CRUISE
2017-02-19 07:40:1734053930998108243-46CRUISE
2017-02-19 07:41:1734154130995108436-46CRUISE
2017-02-19 07:42:1734054130998108624-46CRUISE
2017-02-19 07:43:1734054130992108813-46CRUISE
2017-02-19 07:44:1734054131017109004-46CRUISE
2017-02-19 07:45:1734054130998109193-46CRUISE
2017-02-19 07:46:1734054130998109378-46CRUISE
2017-02-19 07:47:1734054030998109566-46CRUISE
2017-02-19 07:48:1734054030998109755-46CRUISE
2017-02-19 07:49:1734054130998109947-46CRUISE
2017-02-19 07:50:1734054030998110137-46CRUISE
2017-02-19 07:51:1834054130998110326-46CRUISE
2017-02-19 07:52:1734054130998110512-46CRUISE
2017-02-19 07:53:1734054130998110701-46CRUISE
2017-02-19 07:54:1734054030998110889-46CRUISE
2017-02-19 07:55:1734054030998111081-46CRUISE
2017-02-19 07:56:1834054030998111269-46CRUISE
2017-02-19 07:57:1834054030998111456-46CRUISE
2017-02-19 07:58:1734054030998111643-46CRUISE
2017-02-19 07:59:1734054030998111833-46CRUISE
2017-02-19 08:00:1834154130998112025-46CRUISE
2017-02-19 08:01:1834053930999112213-46CRUISE
2017-02-19 08:02:1834053930998112401-46CRUISE
2017-02-19 08:03:1834053930998112593-46CRUISE
2017-02-19 08:04:1834053930998112783-46CRUISE
2017-02-19 08:05:1834053830993112973-46CRUISE
2017-02-19 08:06:1834053830997113160-46CRUISE
2017-02-19 08:07:1834053830978113349-46CRUISE
2017-02-19 08:08:1834053830999113536-46CRUISE
2017-02-19 08:09:1834053830995113726-46CRUISE
2017-02-19 08:10:1834053830998113917-46CRUISE
2017-02-19 08:11:1834053831002114104-46CRUISE
2017-02-19 08:12:1834053831024114290-46CRUISE
2017-02-19 08:13:1834053830994114479-46CRUISE
2017-02-19 08:14:1834053830998114669-46CRUISE
2017-02-19 08:15:1834053831004114858-46CRUISE
2017-02-19 08:16:1834053830990115041-46CRUISE
2017-02-19 08:17:1834053830998115230-46CRUISE
2017-02-19 08:18:1831049830994115348-46CRUISE
2017-02-19 08:19:1831250230997115526-46CRUISE
2017-02-19 08:20:1830548129550115614-43DESCEND
2017-02-19 08:21:1830346227235115674-38DESCEND
2017-02-19 08:22:1830244624990115735-34DESCEND
2017-02-19 08:23:1830643622694115797-30DESCEND
2017-02-19 08:24:1831042820435115859-25DESCEND
2017-02-19 08:25:1831642118186115920-21DESCEND
2017-02-19 08:26:1832541615919115981-16DESCEND
2017-02-19 08:27:1833241213588116041-11DESCEND
2017-02-19 08:28:1831538412073116100-8DESCEND
2017-02-19 08:29:1828034211289116163-7DESCEND
2017-02-19 08:30:1825330710182116226-5DESCEND
2017-02-19 08:31:1824328578941162880DESCEND
2017-02-19 08:32:1823225852491163844DESCEND
2017-02-19 08:33:1815016342401164576DESCEND
2017-02-19 08:34:1814715737971167347DESCEND
2017-02-19 08:35:1814815429881169729DESCEND
2017-02-19 08:36:18148152217511721610DESCEND
2017-02-19 08:37:18148150137211745612DESCEND
2017-02-19 08:38:1814814957711769813DESCEND
2017-02-19 08:39:18595930111782514LANDED
2017-02-19 08:40:18181830111798114TAXI TO THE GATE